sensor_id;sensor_type;location;lat;lon;timestamp;pressure;altitude;pressure_sealevel;temperature;humidity
33404;BME280;19751;40.274;18.268;2023-10-31T00:00:55;101025.56;;;19.79;100.00
33404;BME280;19751;40.274;18.268;2023-10-31T00:03:21;101029.38;;;19.78;100.00
33404;BME280;19751;40.274;18.268;2023-10-31T00:05:46;101014.38;;;19.81;100.00
33404;BME280;19751;40.274;18.268;2023-10-31T00:08:12;101012.25;;;19.83;100.00
33404;BME280;19751;40.274;18.268;2023-10-31T00:10:37;101004.88;;;19.83;100.00
33404;BME280;19751;40.274;18.268;2023-10-31T00:13:03;101003.78;;;19.84;100.00
33404;BME280;19751;40.274;18.268;2023-10-31T00:15:28;100992.03;;;19.84;100.00
33404;BME280;19751;40.274;18.268;2023-10-31T00:17:55;100995.84;;;19.83;100.00
33404;BME280;19751;40.274;18.268;2023-10-31T00:20:21;101010.34;;;19.83;100.00
33404;BME280;19751;40.274;18.268;2023-10-31T00:22:46;101015.91;;;19.89;100.00
33404;BME280;19751;40.274;18.268;2023-10-31T00:25:12;101022.66;;;19.86;100.00
33404;BME280;19751;40.274;18.268;2023-10-31T00:27:37;101029.00;;;19.86;100.00
33404;BME280;19751;40.274;18.268;2023-10-31T00:30:03;101034.78;;;19.90;100.00
33404;BME280;19751;40.274;18.268;2023-10-31T00:32:29;101034.28;;;19.93;100.00
33404;BME280;19751;40.274;18.268;2023-10-31T00:34:54;101023.63;;;19.92;100.00
33404;BME280;19751;40.274;18.268;2023-10-31T00:37:20;101014.34;;;19.93;100.00
33404;BME280;19751;40.274;18.268;2023-10-31T00:39:45;101000.19;;;19.96;100.00
33404;BME280;19751;40.274;18.268;2023-10-31T00:42:11;100986.25;;;19.97;100.00
33404;BME280;19751;40.274;18.268;2023-10-31T00:44:36;100984.94;;;20.00;100.00
33404;BME280;19751;40.274;18.268;2023-10-31T00:47:02;100976.50;;;20.01;100.00
33404;BME280;19751;40.274;18.268;2023-10-31T00:49:30;100965.06;;;20.04;100.00
33404;BME280;19751;40.274;18.268;2023-10-31T00:51:55;100966.47;;;20.07;100.00
33404;BME280;19751;40.274;18.268;2023-10-31T00:54:22;100973.00;;;20.06;100.00
33404;BME280;19751;40.274;18.268;2023-10-31T00:56:47;100962.06;;;20.06;100.00
33404;BME280;19751;40.274;18.268;2023-10-31T00:59:13;100956.59;;;20.06;100.00
33404;BME280;19751;40.274;18.268;2023-10-31T01:01:38;100958.78;;;20.04;100.00
33404;BME280;19751;40.274;18.268;2023-10-31T01:04:04;100957.19;;;20.08;100.00
33404;BME280;19751;40.274;18.268;2023-10-31T01:06:29;100958.03;;;20.08;100.00
33404;BME280;19751;40.274;18.268;2023-10-31T01:08:55;100963.25;;;20.10;100.00
33404;BME280;19751;40.274;18.268;2023-10-31T01:11:21;100976.16;;;20.15;100.00
33404;BME280;19751;40.274;18.268;2023-10-31T01:13:46;100961.09;;;20.12;100.00
33404;BME280;19751;40.274;18.268;2023-10-31T01:16:12;100968.78;;;20.15;100.00
33404;BME280;19751;40.274;18.268;2023-10-31T01:18:37;100970.69;;;20.15;100.00
33404;BME280;19751;40.274;18.268;2023-10-31T01:21:03;100973.09;;;20.11;100.00
33404;BME280;19751;40.274;18.268;2023-10-31T01:23:28;100975.81;;;20.11;100.00
33404;BME280;19751;40.274;18.268;2023-10-31T01:25:54;100975.34;;;20.14;100.00
33404;BME280;19751;40.274;18.268;2023-10-31T01:28:19;100968.22;;;20.13;100.00
33404;BME280;19751;40.274;18.268;2023-10-31T01:30:45;100968.22;;;20.13;100.00
33404;BME280;19751;40.274;18.268;2023-10-31T01:33:10;100960.59;;;20.15;100.00
33404;BME280;19751;40.274;18.268;2023-10-31T01:35:36;100956.19;;;20.14;100.00
33404;BME280;19751;40.274;18.268;2023-10-31T01:38:01;100951.56;;;20.15;100.00
33404;BME280;19751;40.274;18.268;2023-10-31T01:40:27;100955.63;;;20.12;100.00
33404;BME280;19751;40.274;18.268;2023-10-31T01:42:52;100932.34;;;20.09;100.00
33404;BME280;19751;40.274;18.268;2023-10-31T01:45:18;100934.25;;;20.09;100.00
33404;BME280;19751;40.274;18.268;2023-10-31T01:47:45;100931.50;;;20.09;100.00
33404;BME280;19751;40.274;18.268;2023-10-31T01:50:13;100936.97;;;20.09;100.00
33404;BME280;19751;40.274;18.268;2023-10-31T01:52:38;100944.69;;;20.12;100.00
33404;BME280;19751;40.274;18.268;2023-10-31T01:55:04;100941.97;;;20.12;100.00
33404;BME280;19751;40.274;18.268;2023-10-31T01:57:30;100938.88;;;20.08;100.00
33404;BME280;19751;40.274;18.268;2023-10-31T01:59:56;100936.38;;;20.07;100.00
33404;BME280;19751;40.274;18.268;2023-10-31T02:02:23;100947.91;;;20.09;100.00
33404;BME280;19751;40.274;18.268;2023-10-31T02:04:50;100949.56;;;20.10;100.00
33404;BME280;19751;40.274;18.268;2023-10-31T02:07:15;100951.56;;;20.15;100.00
33404;BME280;19751;40.274;18.268;2023-10-31T02:09:41;100944.78;;;20.17;100.00
33404;BME280;19751;40.274;18.268;2023-10-31T02:12:07;100957.38;;;20.18;100.00
33404;BME280;19751;40.274;18.268;2023-10-31T02:14:32;100965.56;;;20.18;100.00
33404;BME280;19751;40.274;18.268;2023-10-31T02:16:58;100960.09;;;20.18;100.00
33404;BME280;19751;40.274;18.268;2023-10-31T02:19:23;100961.44;;;20.16;100.00
33404;BME280;19751;40.274;18.268;2023-10-31T02:21:49;100957.28;;;20.13;100.00
33404;BME280;19751;40.274;18.268;2023-10-31T02:24:14;100961.44;;;20.16;100.00
33404;BME280;19751;40.274;18.268;2023-10-31T02:26:40;100949.41;;;20.17;100.00
33404;BME280;19751;40.274;18.268;2023-10-31T02:29:05;100942.03;;;20.17;100.00
33404;BME280;19751;40.274;18.268;2023-10-31T02:31:32;100935.75;;;20.17;100.00
33404;BME280;19751;40.274;18.268;2023-10-31T02:33:57;100924.31;;;20.20;100.00
33404;BME280;19751;40.274;18.268;2023-10-31T02:36:23;100903.00;;;20.22;100.00
33404;BME280;19751;40.274;18.268;2023-10-31T02:38:48;100910.94;;;20.23;100.00
33404;BME280;19751;40.274;18.268;2023-10-31T02:41:14;100906.81;;;20.21;100.00
33404;BME280;19751;40.274;18.268;2023-10-31T02:43:41;100910.38;;;20.21;100.00
33404;BME280;19751;40.274;18.268;2023-10-31T02:46:07;100909.28;;;20.22;100.00
33404;BME280;19751;40.274;18.268;2023-10-31T02:48:33;100901.91;;;20.23;100.00
33404;BME280;19751;40.274;18.268;2023-10-31T02:51:07;100914.75;;;20.22;100.00
33404;BME280;19751;40.274;18.268;2023-10-31T02:53:34;100916.69;;;20.22;100.00
33404;BME280;19751;40.274;18.268;2023-10-31T02:56:00;100910.38;;;20.21;100.00
33404;BME280;19751;40.274;18.268;2023-10-31T02:58:25;100922.16;;;20.22;100.00
33404;BME280;19751;40.274;18.268;2023-10-31T03:00:51;100921.31;;;20.21;100.00
33404;BME280;19751;40.274;18.268;2023-10-31T03:03:16;100928.69;;;20.21;100.00
33404;BME280;19751;40.274;18.268;2023-10-31T03:05:42;100925.72;;;20.22;100.00
33404;BME280;19751;40.274;18.268;2023-10-31T03:08:07;100922.97;;;20.22;100.00
33404;BME280;19751;40.274;18.268;2023-10-31T03:10:35;100927.94;;;20.25;100.00
33404;BME280;19751;40.274;18.268;2023-10-31T03:13:01;100929.59;;;20.26;100.00
33404;BME280;19751;40.274;18.268;2023-10-31T03:15:27;100933.41;;;20.25;100.00
33404;BME280;19751;40.274;18.268;2023-10-31T03:17:53;100936.16;;;20.25;100.00
33404;BME280;19751;40.274;18.268;2023-10-31T03:20:18;100940.88;;;20.30;100.00
33404;BME280;19751;40.274;18.268;2023-10-31T03:22:44;100941.44;;;20.32;100.00
33404;BME280;19751;40.274;18.268;2023-10-31T03:25:09;100943.34;;;20.31;100.00
33404;BME280;19751;40.274;18.268;2023-10-31T03:27:35;100937.88;;;20.31;100.00
33404;BME280;19751;40.274;18.268;2023-10-31T03:30:01;100931.34;;;20.32;100.00
33404;BME280;19751;40.274;18.268;2023-10-31T03:32:26;100930.28;;;20.33;100.00
33404;BME280;19751;40.274;18.268;2023-10-31T03:34:52;100919.66;;;20.37;100.00
33404;BME280;19751;40.274;18.268;2023-10-31T03:37:17;100919.66;;;20.37;100.00
33404;BME280;19751;40.274;18.268;2023-10-31T03:39:42;100922.13;;;20.39;100.00
33404;BME280;19751;40.274;18.268;2023-10-31T03:42:08;100932.25;;;20.38;100.00
33404;BME280;19751;40.274;18.268;2023-10-31T03:44:33;100920.00;;;20.41;100.00
33404;BME280;19751;40.274;18.268;2023-10-31T03:46:59;100926.28;;;20.41;100.00
33404;BME280;19751;40.274;18.268;2023-10-31T03:49:25;100920.00;;;20.41;100.00
33404;BME280;19751;40.274;18.268;2023-10-31T03:51:50;100923.28;;;20.43;100.00
33404;BME280;19751;40.274;18.268;2023-10-31T03:54:17;100921.63;;;20.42;100.00
33404;BME280;19751;40.274;18.268;2023-10-31T03:56:43;100918.66;;;20.43;100.00
33404;BME280;19751;40.274;18.268;2023-10-31T03:59:09;100917.00;;;20.42;100.00
33404;BME280;19751;40.274;18.268;2023-10-31T04:01:35;100915.09;;;20.43;100.00
33404;BME280;19751;40.274;18.268;2023-10-31T04:04:00;100909.06;;;20.41;100.00
33404;BME280;19751;40.274;18.268;2023-10-31T04:06:26;100909.88;;;20.41;100.00
33404;BME280;19751;40.274;18.268;2023-10-31T04:08:52;100915.34;;;20.41;100.00
33404;BME280;19751;40.274;18.268;2023-10-31T04:11:17;100921.38;;;20.43;100.00
33404;BME280;19751;40.274;18.268;2023-10-31T04:13:43;100915.16;;;20.48;100.00
33404;BME280;19751;40.274;18.268;2023-10-31T04:16:08;100918.41;;;20.45;100.00
33404;BME280;19751;40.274;18.268;2023-10-31T04:18:34;100924.13;;;20.43;100.00
33404;BME280;19751;40.274;18.268;2023-10-31T04:21:00;100918.91;;;20.42;100.00
33404;BME280;19751;40.274;18.268;2023-10-31T04:23:26;100920.81;;;20.41;100.00
33404;BME280;19751;40.274;18.268;2023-10-31T04:25:52;100911.53;;;20.42;100.00
33404;BME280;19751;40.274;18.268;2023-10-31T04:28:18;100915.09;;;20.43;100.00
33404;BME280;19751;40.274;18.268;2023-10-31T04:30:43;100926.09;;;20.48;100.00
33404;BME280;19751;40.274;18.268;2023-10-31T04:33:09;100923.16;;;20.49;100.00
33404;BME280;19751;40.274;18.268;2023-10-31T04:35:35;100926.09;;;20.48;100.00
33404;BME280;19751;40.274;18.268;2023-10-31T04:38:00;100923.50;;;20.53;100.00
33404;BME280;19751;40.274;18.268;2023-10-31T04:40:26;100925.16;;;20.54;100.00
33404;BME280;19751;40.274;18.268;2023-10-31T04:42:51;100926.72;;;20.50;100.00
33404;BME280;19751;40.274;18.268;2023-10-31T04:45:16;100909.47;;;20.49;100.00
33404;BME280;19751;40.274;18.268;2023-10-31T04:47:42;100917.44;;;20.51;100.00
33404;BME280;19751;40.274;18.268;2023-10-31T04:50:08;100924.00;;;20.50;100.00
33404;BME280;19751;40.274;18.268;2023-10-31T04:52:34;100913.59;;;20.52;100.00
33404;BME280;19751;40.274;18.268;2023-10-31T04:54:59;100915.84;;;20.55;100.00
33404;BME280;19751;40.274;18.268;2023-10-31T04:57:25;100919.66;;;20.54;100.00
33404;BME280;19751;40.274;18.268;2023-10-31T04:59:50;100924.31;;;20.53;100.00
33404;BME280;19751;40.274;18.268;2023-10-31T05:02:16;100925.16;;;20.54;100.00
33404;BME280;19751;40.274;18.268;2023-10-31T05:04:42;100934.44;;;20.53;100.00
33404;BME280;19751;40.274;18.268;2023-10-31T05:07:07;100938.81;;;20.54;100.00
33404;BME280;19751;40.274;18.268;2023-10-31T05:09:33;100942.66;;;20.53;100.00
33404;BME280;19751;40.274;18.268;2023-10-31T05:11:59;100947.03;;;20.54;100.00
33404;BME280;19751;40.274;18.268;2023-10-31T05:14:25;100953.66;;;20.58;100.00
33404;BME280;19751;40.274;18.268;2023-10-31T05:16:51;100946.00;;;20.60;100.00
33404;BME280;19751;40.274;18.268;2023-10-31T05:19:16;100947.94;;;20.59;100.00
33404;BME280;19751;40.274;18.268;2023-10-31T05:21:42;100949.00;;;20.58;100.00
33404;BME280;19751;40.274;18.268;2023-10-31T05:24:07;100958.06;;;20.59;100.00
33404;BME280;19751;40.274;18.268;2023-10-31T05:26:33;100949.28;;;20.57;100.00
33404;BME280;19751;40.274;18.268;2023-10-31T05:28:59;100941.88;;;20.57;100.00
33404;BME280;19751;40.274;18.268;2023-10-31T05:31:25;100937.56;;;20.62;100.00
33404;BME280;19751;40.274;18.268;2023-10-31T05:33:51;100931.84;;;20.63;100.00
33404;BME280;19751;40.274;18.268;2023-10-31T05:36:22;100932.16;;;20.67;100.00
33404;BME280;19751;40.274;18.268;2023-10-31T05:38:48;100922.88;;;20.68;100.00
33404;BME280;19751;40.274;18.268;2023-10-31T05:41:14;100932.72;;;20.69;100.00
33404;BME280;19751;40.274;18.268;2023-10-31T05:43:41;100918.47;;;20.67;100.00
33404;BME280;19751;40.274;18.268;2023-10-31T05:46:06;100930.00;;;20.69;100.00
33404;BME280;19751;40.274;18.268;2023-10-31T05:48:37;100927.25;;;20.69;100.00
33404;BME280;19751;40.274;18.268;2023-10-31T05:51:03;100928.41;;;20.73;100.00
33404;BME280;19751;40.274;18.268;2023-10-31T05:53:30;100929.81;;;20.75;100.00
33404;BME280;19751;40.274;18.268;2023-10-31T05:55:57;100929.56;;;20.77;100.00
33404;BME280;19751;40.274;18.268;2023-10-31T05:58:23;100937.78;;;20.77;100.00
33404;BME280;19751;40.274;18.268;2023-10-31T06:00:48;100953.97;;;20.78;100.00
33404;BME280;19751;40.274;18.268;2023-10-31T06:03:14;100957.84;;;20.82;100.00
33404;BME280;19751;40.274;18.268;2023-10-31T06:05:39;100963.06;;;20.84;100.00
33404;BME280;19751;40.274;18.268;2023-10-31T06:08:05;100971.00;;;20.85;100.00
33404;BME280;19751;40.274;18.268;2023-10-31T06:10:30;100977.59;;;20.84;100.00
33404;BME280;19751;40.274;18.268;2023-10-31T06:12:56;100974.63;;;20.86;100.00
33404;BME280;19751;40.274;18.268;2023-10-31T06:15:21;100981.16;;;20.85;100.00
33404;BME280;19751;40.274;18.268;2023-10-31T06:17:47;100972.69;;;20.87;100.00
33404;BME280;19751;40.274;18.268;2023-10-31T06:20:12;100965.63;;;20.91;100.00
33404;BME280;19751;40.274;18.268;2023-10-31T06:22:38;100964.28;;;20.93;100.00
33404;BME280;19751;40.274;18.268;2023-10-31T06:25:03;100970.84;;;20.92;100.00
33404;BME280;19751;40.274;18.268;2023-10-31T06:27:29;100961.06;;;20.96;100.00
33404;BME280;19751;40.274;18.268;2023-10-31T06:29:55;100969.00;;;20.98;100.00
33404;BME280;19751;40.274;18.268;2023-10-31T06:32:20;100979.94;;;20.98;100.00
33404;BME280;19751;40.274;18.268;2023-10-31T06:34:46;100972.81;;;20.97;100.00
33404;BME280;19751;40.274;18.268;2023-10-31T06:37:11;100975.31;;;20.98;100.00
33404;BME280;19751;40.274;18.268;2023-10-31T06:39:37;100976.97;;;20.99;100.00
33404;BME280;19751;40.274;18.268;2023-10-31T06:42:03;100976.97;;;20.99;100.00
33404;BME280;19751;40.274;18.268;2023-10-31T06:44:29;100982.19;;;21.01;100.00
33404;BME280;19751;40.274;18.268;2023-10-31T06:46:54;100988.50;;;21.01;100.00
33404;BME280;19751;40.274;18.268;2023-10-31T06:49:19;100992.06;;;21.02;100.00
33404;BME280;19751;40.274;18.268;2023-10-31T06:51:46;100992.38;;;21.05;100.00
33404;BME280;19751;40.274;18.268;2023-10-31T06:54:11;100999.84;;;21.10;100.00
33404;BME280;19751;40.274;18.268;2023-10-31T06:56:36;101004.81;;;21.13;100.00
33404;BME280;19751;40.274;18.268;2023-10-31T06:59:02;101004.56;;;21.15;100.00
33404;BME280;19751;40.274;18.268;2023-10-31T07:01:28;101002.16;;;21.18;100.00
33404;BME280;19751;40.274;18.268;2023-10-31T07:03:53;101004.06;;;21.18;100.00
33404;BME280;19751;40.274;18.268;2023-10-31T07:06:19;101008.72;;;21.17;100.00
33404;BME280;19751;40.274;18.268;2023-10-31T07:08:44;101006.56;;;21.19;100.00
33404;BME280;19751;40.274;18.268;2023-10-31T07:11:10;101009.03;;;21.21;100.00
33404;BME280;19751;40.274;18.268;2023-10-31T07:13:36;101005.53;;;21.25;100.00
33404;BME280;19751;40.274;18.268;2023-10-31T07:16:01;101013.25;;;21.28;100.00
33404;BME280;19751;40.274;18.268;2023-10-31T07:18:27;101017.91;;;21.28;100.00
33404;BME280;19751;40.274;18.268;2023-10-31T07:20:53;101016.56;;;21.30;100.00
33404;BME280;19751;40.274;18.268;2023-10-31T07:23:18;101016.09;;;21.33;100.00
33404;BME280;19751;40.274;18.268;2023-10-31T07:25:44;101016.63;;;21.35;100.00
33404;BME280;19751;40.274;18.268;2023-10-31T07:28:09;101004.34;;;21.38;100.00
33404;BME280;19751;40.274;18.268;2023-10-31T07:30:35;100990.38;;;21.40;100.00
33404;BME280;19751;40.274;18.268;2023-10-31T07:33:00;100990.47;;;21.45;100.00
33404;BME280;19751;40.274;18.268;2023-10-31T07:35:26;100991.63;;;21.49;100.00
33404;BME280;19751;40.274;18.268;2023-10-31T07:37:52;100995.50;;;21.53;100.00
33404;BME280;19751;40.274;18.268;2023-10-31T07:40:17;100983.44;;;21.54;100.00
33404;BME280;19751;40.274;18.268;2023-10-31T07:42:43;100980.72;;;21.54;100.00
33404;BME280;19751;40.274;18.268;2023-10-31T07:45:09;100968.97;;;21.58;100.00
33404;BME280;19751;40.274;18.268;2023-10-31T07:47:35;100968.19;;;21.63;100.00
33404;BME280;19751;40.274;18.268;2023-10-31T07:50:01;100959.47;;;21.66;100.00
33404;BME280;19751;40.274;18.268;2023-10-31T07:52:26;100957.91;;;21.75;100.00
33404;BME280;19751;40.274;18.268;2023-10-31T07:54:52;100954.41;;;21.80;100.00
33404;BME280;19751;40.274;18.268;2023-10-31T07:57:18;100963.50;;;21.86;100.00
33404;BME280;19751;40.274;18.268;2023-10-31T07:59:44;100964.63;;;21.90;100.00
33404;BME280;19751;40.274;18.268;2023-10-31T08:02:10;100968.50;;;21.94;100.00
33404;BME280;19751;40.274;18.268;2023-10-31T08:04:35;100958.13;;;21.96;100.00
33404;BME280;19751;40.274;18.268;2023-10-31T08:07:01;100967.47;;;22.00;100.00
33404;BME280;19751;40.274;18.268;2023-10-31T08:09:27;100964.22;;;22.03;100.00
33404;BME280;19751;40.274;18.268;2023-10-31T08:11:52;100959.34;;;22.10;100.00
33404;BME280;19751;40.274;18.268;2023-10-31T08:14:18;100960.50;;;22.14;100.00
33404;BME280;19751;40.274;18.268;2023-10-31T08:16:44;100955.31;;;22.18;100.00
33404;BME280;19751;40.274;18.268;2023-10-31T08:19:10;100953.97;;;22.20;100.00
33404;BME280;19751;40.274;18.268;2023-10-31T08:21:35;100953.97;;;22.20;100.00
33404;BME280;19751;40.274;18.268;2023-10-31T08:24:04;100946.84;;;22.19;100.00
33404;BME280;19751;40.274;18.268;2023-10-31T08:26:31;100931.53;;;22.23;100.00
33404;BME280;19751;40.274;18.268;2023-10-31T08:28:56;100930.16;;;22.26;100.00
33404;BME280;19751;40.274;18.268;2023-10-31T08:31:22;100935.94;;;22.29;100.00
33404;BME280;19751;40.274;18.268;2023-10-31T08:33:48;100930.19;;;22.31;100.00
33404;BME280;19751;40.274;18.268;2023-10-31T08:36:13;100934.06;;;22.35;100.00
33404;BME280;19751;40.274;18.268;2023-10-31T08:38:39;100919.00;;;22.38;100.00
33404;BME280;19751;40.274;18.268;2023-10-31T08:41:05;100915.44;;;22.42;100.00
33404;BME280;19751;40.274;18.268;2023-10-31T08:43:30;100919.31;;;22.46;100.00
33404;BME280;19751;40.274;18.268;2023-10-31T08:45:56;100925.41;;;22.53;100.00
33404;BME280;19751;40.274;18.268;2023-10-31T08:48:21;100913.06;;;22.56;100.00
33404;BME280;19751;40.274;18.268;2023-10-31T08:50:47;100910.38;;;22.61;100.00
33404;BME280;19751;40.274;18.268;2023-10-31T08:53:13;100896.13;;;22.69;100.00
33404;BME280;19751;40.274;18.268;2023-10-31T08:55:38;100900.25;;;22.72;100.00
33404;BME280;19751;40.274;18.268;2023-10-31T08:58:04;100901.38;;;22.76;100.00
33404;BME280;19751;40.274;18.268;2023-10-31T09:00:29;100910.72;;;22.80;100.00
33404;BME280;19751;40.274;18.268;2023-10-31T09:02:55;100909.09;;;22.84;100.00
33404;BME280;19751;40.274;18.268;2023-10-31T09:05:20;100902.25;;;22.87;100.00
33404;BME280;19751;40.274;18.268;2023-10-31T09:07:46;100902.88;;;22.94;100.00
33404;BME280;19751;40.274;18.268;2023-10-31T09:10:12;100907.00;;;23.01;100.00
33404;BME280;19751;40.274;18.268;2023-10-31T09:12:38;100893.63;;;23.10;100.00
33404;BME280;19751;40.274;18.268;2023-10-31T09:15:04;100895.56;;;23.20;100.00
33404;BME280;19751;40.274;18.268;2023-10-31T09:17:29;100888.44;;;23.29;100.00
33404;BME280;19751;40.274;18.268;2023-10-31T09:19:55;100887.09;;;23.37;100.00
33404;BME280;19751;40.274;18.268;2023-10-31T09:22:21;100888.47;;;23.39;100.00
33404;BME280;19751;40.274;18.268;2023-10-31T09:24:46;100878.31;;;23.40;100.00
33404;BME280;19751;40.274;18.268;2023-10-31T09:27:11;100884.34;;;23.42;100.00
33404;BME280;19751;40.274;18.268;2023-10-31T09:29:37;100887.09;;;23.42;100.00
33404;BME280;19751;40.274;18.268;2023-10-31T09:32:03;100886.56;;;23.45;100.00
33404;BME280;19751;40.274;18.268;2023-10-31T09:34:30;100888.75;;;23.43;100.00
33404;BME280;19751;40.274;18.268;2023-10-31T09:36:56;100885.75;;;23.44;100.00
33404;BME280;19751;40.274;18.268;2023-10-31T09:39:21;100883.53;;;23.46;100.00
33404;BME280;19751;40.274;18.268;2023-10-31T09:41:48;100884.34;;;23.47;100.00
33404;BME280;19751;40.274;18.268;2023-10-31T09:44:14;100867.84;;;23.47;100.00
33404;BME280;19751;40.274;18.268;2023-10-31T09:46:39;100868.44;;;23.49;100.00
33404;BME280;19751;40.274;18.268;2023-10-31T09:49:06;100864.84;;;23.53;100.00
33404;BME280;19751;40.274;18.268;2023-10-31T09:51:33;100866.50;;;23.54;100.00
33404;BME280;19751;40.274;18.268;2023-10-31T09:53:59;100860.19;;;23.54;100.00
33404;BME280;19751;40.274;18.268;2023-10-31T09:56:27;100861.28;;;23.53;100.00
33404;BME280;19751;40.274;18.268;2023-10-31T09:59:00;100851.94;;;23.54;100.00
33404;BME280;19751;40.274;18.268;2023-10-31T10:01:25;100854.97;;;23.52;100.00
33404;BME280;19751;40.274;18.268;2023-10-31T10:03:51;100854.69;;;23.54;100.00
33404;BME280;19751;40.274;18.268;2023-10-31T10:06:17;100853.84;;;23.53;100.00
33404;BME280;19751;40.274;18.268;2023-10-31T10:08:46;100854.97;;;23.52;100.00
33404;BME280;19751;40.274;18.268;2023-10-31T10:11:12;100843.16;;;23.52;100.00
33404;BME280;19751;40.274;18.268;2023-10-31T10:13:37;100842.03;;;23.53;100.00
33404;BME280;19751;40.274;18.268;2023-10-31T10:16:03;100835.16;;;23.55;100.00
33404;BME280;19751;40.274;18.268;2023-10-31T10:18:31;100826.09;;;23.60;100.00
33404;BME280;19751;40.274;18.268;2023-10-31T10:20:58;100839.28;;;23.63;100.00
33404;BME280;19751;40.274;18.268;2023-10-31T10:23:24;100843.47;;;23.66;100.00
33404;BME280;19751;40.274;18.268;2023-10-31T10:25:51;100829.41;;;23.67;100.00
33404;BME280;19751;40.274;18.268;2023-10-31T10:28:17;100819.28;;;23.73;100.00
33404;BME280;19751;40.274;18.268;2023-10-31T10:30:48;100823.94;;;23.77;100.00
33404;BME280;19751;40.274;18.268;2023-10-31T10:33:14;100826.69;;;23.77;100.00
33404;BME280;19751;40.274;18.268;2023-10-31T10:35:41;100820.91;;;23.79;100.00
33404;BME280;19751;40.274;18.268;2023-10-31T10:38:13;100806.31;;;23.78;100.00
33404;BME280;19751;40.274;18.268;2023-10-31T10:40:44;100808.53;;;23.76;100.00
33404;BME280;19751;40.274;18.268;2023-10-31T10:43:20;100789.28;;;23.76;100.00
33404;BME280;19751;40.274;18.268;2023-10-31T10:45:55;100790.66;;;23.74;100.00
33404;BME280;19751;40.274;18.268;2023-10-31T10:48:22;100785.69;;;23.76;100.00
33404;BME280;19751;40.274;18.268;2023-10-31T10:51:19;100787.09;;;23.73;100.00
33404;BME280;19751;40.274;18.268;2023-10-31T10:53:57;100785.44;;;23.67;100.00
33404;BME280;19751;40.274;18.268;2023-10-31T10:56:30;100783.75;;;23.61;100.00
33404;BME280;19751;40.274;18.268;2023-10-31T10:59:02;100799.16;;;23.62;100.00
33404;BME280;19751;40.274;18.268;2023-10-31T11:01:31;100794.47;;;23.63;100.00
33404;BME280;19751;40.274;18.268;2023-10-31T11:03:56;100777.72;;;23.64;100.00
33404;BME280;19751;40.274;18.268;2023-10-31T11:06:23;100791.22;;;23.66;100.00
33404;BME280;19751;40.274;18.268;2023-10-31T11:08:49;100777.44;;;23.71;100.00
33404;BME280;19751;40.274;18.268;2023-10-31T11:11:18;100773.59;;;23.72;100.00
33404;BME280;19751;40.274;18.268;2023-10-31T11:13:45;100762.88;;;23.70;100.00
33404;BME280;19751;40.274;18.268;2023-10-31T11:16:19;100779.66;;;23.69;100.00
33404;BME280;19751;40.274;18.268;2023-10-31T11:18:48;100778.00;;;23.68;100.00
33404;BME280;19751;40.274;18.268;2023-10-31T11:21:13;100784.88;;;23.65;100.00
33404;BME280;19751;40.274;18.268;2023-10-31T11:23:40;100792.03;;;23.66;100.00
33404;BME280;19751;40.274;18.268;2023-10-31T11:26:09;100788.47;;;23.66;100.00
33404;BME280;19751;40.274;18.268;2023-10-31T11:28:35;100784.88;;;23.65;100.00
33404;BME280;19751;40.274;18.268;2023-10-31T11:31:01;100793.97;;;23.66;100.00
33404;BME280;19751;40.274;18.268;2023-10-31T11:33:28;100784.03;;;23.65;100.00
33404;BME280;19751;40.274;18.268;2023-10-31T11:36:01;100777.97;;;23.63;100.00
33404;BME280;19751;40.274;18.268;2023-10-31T11:38:37;100781.00;;;23.61;100.00
33404;BME280;19751;40.274;18.268;2023-10-31T11:41:04;100788.16;;;23.62;100.00
33404;BME280;19751;40.274;18.268;2023-10-31T11:43:56;100779.94;;;23.67;100.00
33404;BME280;19751;40.274;18.268;2023-10-31T11:46:24;100768.38;;;23.70;100.00
33404;BME280;19751;40.274;18.268;2023-10-31T11:48:53;100759.59;;;23.73;100.00
33404;BME280;19751;40.274;18.268;2023-10-31T11:51:21;100764.25;;;23.78;100.00
33404;BME280;19751;40.274;18.268;2023-10-31T11:53:48;100768.91;;;23.83;100.00
33404;BME280;19751;40.274;18.268;2023-10-31T11:56:17;100777.16;;;23.83;100.00
33404;BME280;19751;40.274;18.268;2023-10-31T11:58:43;100770.03;;;23.81;100.00
33404;BME280;19751;40.274;18.268;2023-10-31T12:01:09;100772.22;;;23.74;100.00
33404;BME280;19751;40.274;18.268;2023-10-31T12:03:39;100776.34;;;23.72;100.00
33404;BME280;19751;40.274;18.268;2023-10-31T12:06:05;100784.88;;;23.70;100.00
33404;BME280;19751;40.274;18.268;2023-10-31T12:08:36;100773.34;;;23.68;100.00
33404;BME280;19751;40.274;18.268;2023-10-31T12:11:22;100763.44;;;23.67;100.00
33404;BME280;19751;40.274;18.268;2023-10-31T12:14:03;100752.44;;;23.67;100.00
33404;BME280;19751;40.274;18.268;2023-10-31T12:16:32;100761.22;;;23.64;100.00
33404;BME280;19751;40.274;18.268;2023-10-31T12:19:00;100763.41;;;23.62;100.00
33404;BME280;19751;40.274;18.268;2023-10-31T12:21:40;100767.25;;;23.61;100.00
33404;BME280;19751;40.274;18.268;2023-10-31T12:24:09;100760.66;;;23.62;100.00
33404;BME280;19751;40.274;18.268;2023-10-31T12:26:36;100752.41;;;23.62;100.00